Rotterdam The Hague Airport

Airport
ICAO code: 
EHRD
IATA Code: 
RTM
Summary
ICAO Region: 
EUR
Territory: 
Location: 
Rotterdam, Zuid-Holland
Serving: 
Rotterdam
Elevation: 
-15 ft
Coordinates: 
Aerial View: 
51° 57' 24.998" N, 4° 26' 13.999" E
Metar
Observation
EHRD 032155Z AUTO 19009KT 160V220 9000 BKN004 OVC005 05/04 Q1000 TEMPO 5000
Station
Rotterdam Airport Zestienhoven
Date/Time
2021-12-03 21:55:00
Wind direction
190°
Wind speed
09 kts
Lowest cloud amount
broken clouds
Temperature
5°C
Dew point
4°C
Humidity
93%
QNH
1000 hPa
Weather condition
n/a

International airport serving Rotterdam and The Hague, The Netherlands. Rotterdam The Hague Airport (formerly: Rotterdam Airport, Vliegveld Zestienhoven), located 3 nm north northwest of Rotterdam, the Netherlands.

Climatology

Temperate Marine climate/Oceanic climate (Köppen climate classification Cfb). Moderately cool summer and comparatively warm winter with a temperature range of only 14°C. Prevailing south-westerly winds from the Atlantic Ocean.

Runways

Designator Length Width Surface Rops
6/24 2200 45 ASP Yes/Yes
Airport map: 
Aerial View: 

Accidents and Serious Incidents at or in the vicinity of EHRD

SKYbrary Partners:

Safety knowledge contributed by: